Time;durP1;ratioP1;P1;durP2;ratioP2;P2;SDS_P1;SDS_P2;PMS_P1;PMS_P2;Temp;Humidity;BMP_temperature;BMP_pressure;BME280_temperature;BME280_humidity;BME280_pressure;Samples;Min_cycle;Max_cycle;Signal;HPM_P1;HPM_P2
2023/03/13 20:31:54;;;;;;;;;;;;;;;21.31;55.18;98934.50;4998595;27;97676;-63
2023/03/13 20:38:55;;;;;;;;;;;;;;;19.80;52.32;98900.72;5025273;27;10495;-72
2023/03/13 20:41:24;;;;;;;;;;;;;;;18.15;54.55;98899.63;5058246;28;1213;-73
2023/03/13 20:43:50;;;;;;;;;;;;;;;16.85;56.31;98915.38;5039157;28;9963;-73
2023/03/13 20:46:15;;;;;;;;;;;;;;;15.81;58.14;98913.06;5009081;28;141422;-73
2023/03/13 20:48:41;;;;;;;;;;;;;;;14.81;60.08;98897.47;5005644;28;1197;-73
2023/03/13 20:51:07;;;;;;;;;;;;;;;14.09;60.77;98909.28;5001027;28;1198;-72
2023/03/13 20:53:36;;;;;;;;;;;;;;;13.47;62.27;98914.56;4995889;28;154329;-72
2023/03/13 20:56:01;;;;;;;;;;;;;;;12.96;63.60;98914.75;5014990;28;1349;-73
2023/03/13 20:58:27;;;;;;;;;;;;;;;12.56;64.19;98911.81;4996764;28;10268;-72
2023/03/13 21:00:52;;;;;;;;;;;;;;;12.23;65.30;98906.25;4990471;28;4948;-72
2023/03/13 21:03:18;;;;;;;;;;;;;;;11.99;65.64;98914.34;5003098;28;1106;-72
2023/03/13 21:05:43;;;;;;;;;;;;;;;11.80;66.83;98910.47;5005282;28;1283;-72
2023/03/13 21:08:09;;;;;;;;;;;;;;;11.61;67.37;98917.81;5003177;28;1346;-72
2023/03/13 21:10:35;;;;;;;;;;;;;;;11.48;66.82;98928.00;4997136;28;1094;-72
2023/03/13 21:13:00;;;;;;;;;;;;;;;11.40;67.07;98925.47;4999522;28;1538;-73
2023/03/13 21:15:26;;;;;;;;;;;;;;;11.34;67.88;98919.19;4998971;28;1259;-73
2023/03/13 21:17:52;;;;;;;;;;;;;;;11.30;68.50;98914.56;5002265;28;1891;-72
2023/03/13 21:20:17;;;;;;;;;;;;;;;11.24;67.65;98925.63;5005293;28;1073;-72
2023/03/13 21:22:43;;;;;;;;;;;;;;;11.20;68.47;98901.84;4993139;28;1224;-73
2023/03/13 21:25:09;;;;;;;;;;;;;;;11.17;68.23;98895.19;5002516;28;1062;-72
2023/03/13 21:27:35;;;;;;;;;;;;;;;11.18;69.18;98898.59;4999045;28;1735;-72
2023/03/13 21:30:01;;;;;;;;;;;;;;;11.16;69.12;98908.34;4999103;28;1574;-72
2023/03/13 21:32:26;;;;;;;;;;;;;;;11.14;68.86;98900.75;5001750;28;2211;-72
2023/03/13 21:34:52;;;;;;;;;;;;;;;11.13;69.15;98899.13;4997277;28;1474;-72
2023/03/13 21:37:17;;;;;;;;;;;;;;;11.12;69.70;98902.69;5001910;28;1894;-73
2023/03/13 21:39:43;;;;;;;;;;;;;;;11.12;69.93;98876.75;5000474;28;1166;-72
2023/03/13 21:42:11;;;;;;;;;;;;;;;11.07;70.69;98857.53;5011028;28;1397;-73
2023/03/13 21:44:36;;;;;;;;;;;;;;;11.10;70.77;98859.75;4991633;28;1489;-73
2023/03/13 21:47:01;;;;;;;;;;;;;;;11.10;70.28;98860.56;4992827;28;1494;-73
2023/03/13 21:49:26;;;;;;;;;;;;;;;11.11;70.46;98854.38;4986295;28;1195;-72
2023/03/13 21:51:52;;;;;;;;;;;;;;;11.10;70.99;98855.38;4979024;28;1267;-72
2023/03/13 21:54:17;;;;;;;;;;;;;;;11.08;70.33;98853.94;4979499;28;1155;-73
2023/03/13 21:56:42;;;;;;;;;;;;;;;11.06;70.75;98850.72;4976282;28;1907;-71
2023/03/13 21:59:08;;;;;;;;;;;;;;;11.02;71.05;98844.28;4983444;28;1483;-72
2023/03/13 22:01:33;;;;;;;;;;;;;;;11.00;71.32;98847.03;4990458;28;5226;-73
2023/03/13 22:03:58;;;;;;;;;;;;;;;10.98;71.53;98851.59;4991737;28;1399;-73
2023/03/13 22:06:23;;;;;;;;;;;;;;;10.95;71.58;98849.34;4984922;28;1359;-73
2023/03/13 22:08:49;;;;;;;;;;;;;;;10.92;72.51;98839.34;4990811;28;1516;-73
2023/03/13 22:11:14;;;;;;;;;;;;;;;10.90;72.65;98833.53;4974218;28;1181;-73
2023/03/13 22:13:40;;;;;;;;;;;;;;;10.89;72.98;98834.47;4991301;28;1871;-72
2023/03/13 22:16:05;;;;;;;;;;;;;;;10.88;73.23;98828.50;4979422;28;1328;-74
2023/03/13 22:18:31;;;;;;;;;;;;;;;10.87;73.34;98826.09;4978720;28;1930;-74
2023/03/13 22:20:57;;;;;;;;;;;;;;;10.88;74.33;98822.50;4986445;28;1485;-73
2023/03/13 22:23:22;;;;;;;;;;;;;;;10.88;75.84;98817.31;4986287;28;1262;-72
2023/03/13 22:25:47;;;;;;;;;;;;;;;10.88;75.66;98817.31;4986048;28;1292;-73
2023/03/13 22:28:12;;;;;;;;;;;;;;;10.89;75.40;98813.75;4987250;28;2015;-73
2023/03/13 22:30:38;;;;;;;;;;;;;;;10.88;75.62;98809.53;4988602;28;1273;-73
2023/03/13 22:33:05;;;;;;;;;;;;;;;10.89;75.89;98798.19;4985421;28;1123;-73
2023/03/13 22:35:31;;;;;;;;;;;;;;;10.88;77.08;98802.56;4988184;28;927;-73
2023/03/13 22:37:56;;;;;;;;;;;;;;;10.88;76.03;98804.34;5000675;28;1911;-73
2023/03/13 22:40:22;;;;;;;;;;;;;;;10.89;75.70;98808.56;4987543;28;1416;-73
2023/03/13 22:42:47;;;;;;;;;;;;;;;10.87;75.70;98805.34;4990156;28;1455;-73
2023/03/13 22:45:13;;;;;;;;;;;;;;;10.86;76.66;98814.09;4985755;28;1220;-74
2023/03/13 22:47:38;;;;;;;;;;;;;;;10.87;77.54;98820.91;4996096;28;1358;-73
2023/03/13 22:50:03;;;;;;;;;;;;;;;10.85;76.51;98820.28;4995161;28;1145;-72
2023/03/13 22:52:29;;;;;;;;;;;;;;;10.86;76.59;98814.09;4987810;28;1361;-73
2023/03/13 22:54:55;;;;;;;;;;;;;;;10.86;77.26;98814.09;4987877;28;1719;-74
2023/03/13 22:57:21;;;;;;;;;;;;;;;10.87;78.15;98818.31;4983825;28;1971;-74
2023/03/13 22:59:46;;;;;;;;;;;;;;;10.87;78.01;98805.34;4988570;28;1195;-73
2023/03/13 23:02:11;;;;;;;;;;;;;;;10.88;77.82;98812.13;4982683;28;5301;-73
2023/03/13 23:04:36;;;;;;;;;;;;;;;10.90;78.25;98820.56;4983936;28;1635;-72
2023/03/13 23:07:02;;;;;;;;;;;;;;;10.87;77.66;98832.06;4980302;28;1296;-74
2023/03/13 23:09:27;;;;;;;;;;;;;;;10.88;78.89;98812.13;4982434;28;1217;-73
2023/03/13 23:11:52;;;;;;;;;;;;;;;10.88;78.23;98806.94;4981741;28;1286;-72
2023/03/13 23:14:17;;;;;;;;;;;;;;;10.88;78.13;98801.75;4982552;28;1424;-73
2023/03/13 23:16:42;;;;;;;;;;;;;;;10.88;78.13;98802.56;4981225;28;1949;-73
2023/03/13 23:19:08;;;;;;;;;;;;;;;10.89;78.93;98798.19;5001039;28;1503;-73
2023/03/13 23:21:33;;;;;;;;;;;;;;;10.89;78.95;98798.97;4980241;28;1323;-73
2023/03/13 23:23:58;;;;;;;;;;;;;;;10.90;78.01;98799.81;4985370;28;1983;-73
2023/03/13 23:26:23;;;;;;;;;;;;;;;10.89;79.09;98791.19;4980906;28;1455;-72
2023/03/13 23:28:48;;;;;;;;;;;;;;;10.88;78.11;98788.78;4985080;28;1487;-74
2023/03/13 23:31:15;;;;;;;;;;;;;;;10.86;78.43;98788.97;4983101;28;1384;-74
2023/03/13 23:33:41;;;;;;;;;;;;;;;10.91;78.62;98791.03;4981020;28;1449;-73
2023/03/13 23:36:07;;;;;;;;;;;;;;;10.85;78.82;98782.19;4978696;28;2641;-73
2023/03/13 23:38:33;;;;;;;;;;;;;;;10.84;78.78;98784.97;4980056;28;1906;-73
2023/03/13 23:40:58;;;;;;;;;;;;;;;10.83;78.25;98767.75;4979696;28;1392;-72
2023/03/13 23:43:23;;;;;;;;;;;;;;;10.82;78.77;98760.97;4986432;28;1155;-73
2023/03/13 23:45:48;;;;;;;;;;;;;;;10.81;78.67;98769.75;4986215;28;1444;-73
2023/03/13 23:48:13;;;;;;;;;;;;;;;10.85;78.06;98771.00;4981195;28;1327;-72
2023/03/13 23:50:39;;;;;;;;;;;;;;;10.86;78.31;98768.22;4986530;28;1537;-74
2023/03/13 23:53:04;;;;;;;;;;;;;;;10.82;78.90;98781.72;4984793;28;1127;-74
2023/03/13 23:55:29;;;;;;;;;;;;;;;10.82;78.96;98779.94;4987072;28;1459;-73
2023/03/13 23:57:54;;;;;;;;;;;;;;;10.79;79.57;98782.88;4984759;28;1895;-73
